Terminal Aerodrome Forecast
Issued by NWS Billings, MT

Home | Current Version | Previous Version | Graphics & Text | Print | Product List | Glossary On
Versions: 1 2 3 4 5 6 7 8 9 10 11 12 13
000
FTUS45 KBYZ 211723
TAFMLS
TAF
KMLS 211723Z 2118/2218 14008KT P6SM SKC
     FM212300 22008KT P6SM SKC
     FM220300 15007KT P6SM SKC
     FM221600 30012KT P6SM SKC=

USA.gov is the U.S. government's official web portal to all federal, state and local government web resources and services.